Time;durP1;ratioP1;P1;durP2;ratioP2;P2;SDS_P1;SDS_P2;PMS_P1;PMS_P2;Temp;Humidity;BMP_temperature;BMP_pressure;BME280_temperature;BME280_humidity;BME280_pressure;Samples;Min_cycle;Max_cycle;Signal;HPM_P1;HPM_P2
2021/01/13 00:02:15;;;;;;;2.20;1.50;;;;;;;3.77;70.85;99251.47;5034416;28;20037;-77
2021/01/13 00:04:40;;;;;;;2.40;1.50;;;;;;;3.96;71.26;99267.19;5034937;28;20034;-76
2021/01/13 00:07:06;;;;;;;1.75;1.10;;;;;;;3.92;71.34;99268.06;5038024;28;20029;-77
2021/01/13 00:09:31;;;;;;;2.20;1.00;;;;;;;3.84;70.62;99262.31;5036482;28;20032;-77
2021/01/13 00:11:58;;;;;;;1.02;0.80;;;;;;;3.84;69.93;99267.31;5035340;28;20017;-77
2021/01/13 00:14:24;;;;;;;0.95;0.70;;;;;;;3.85;70.79;99274.00;5034836;28;20190;-77
2021/01/13 00:16:50;;;;;;;1.55;0.95;;;;;;;3.63;70.86;99255.00;5032788;28;20033;-78
2021/01/13 00:19:16;;;;;;;0.93;0.73;;;;;;;3.60;70.82;99219.88;5033609;28;20026;-78
2021/01/13 00:21:48;;;;;;;1.67;1.00;;;;;;;3.77;71.47;99246.47;5032222;28;20411;-78
2021/01/13 00:24:13;;;;;;;1.83;1.23;;;;;;;3.89;70.65;99248.81;5033764;28;20025;-77
2021/01/13 00:26:38;;;;;;;1.83;1.13;;;;;;;3.68;70.54;99253.28;5032279;28;20033;-77
2021/01/13 00:29:04;;;;;;;1.48;1.10;;;;;;;3.71;71.37;99253.22;5032487;28;20041;-77
2021/01/13 00:31:29;;;;;;;1.42;0.82;;;;;;;3.79;69.91;99267.38;5032633;28;20036;-77
2021/01/13 00:33:55;;;;;;;1.02;0.80;;;;;;;3.79;69.65;99253.97;5035557;28;20026;-77
2021/01/13 00:36:25;;;;;;;1.58;1.08;;;;;;;3.71;70.56;99238.16;5033491;28;20031;-77
2021/01/13 00:38:51;;;;;;;1.48;1.00;;;;;;;3.88;70.08;99252.16;5032158;28;20465;-77
2021/01/13 00:41:16;;;;;;;1.80;0.98;;;;;;;3.81;70.73;99260.66;5032199;28;20057;-76
2021/01/13 00:43:42;;;;;;;1.10;0.80;;;;;;;3.82;70.99;99258.97;5032502;28;20022;-77
2021/01/13 00:46:09;;;;;;;1.38;1.10;;;;;;;3.53;70.94;99222.47;5033187;28;20104;-77
2021/01/13 00:48:34;;;;;;;1.77;1.08;;;;;;;3.63;71.49;99234.91;5032863;28;20036;-77
2021/01/13 00:51:00;;;;;;;2.38;1.10;;;;;;;3.76;71.89;99254.88;5033054;28;20021;-77
2021/01/13 00:53:27;;;;;;;1.42;1.15;;;;;;;3.69;73.52;99258.28;5031710;28;20124;-77
2021/01/13 00:55:52;;;;;;;1.50;1.20;;;;;;;3.60;73.03;99237.47;5033047;28;20029;-76
2021/01/13 00:58:18;;;;;;;1.40;1.02;;;;;;;3.86;70.26;99253.06;5032535;28;20132;-76
2021/01/13 01:00:43;;;;;;;1.48;1.00;;;;;;;3.88;70.85;99254.69;5031634;28;20033;-77
2021/01/13 01:03:09;;;;;;;1.02;0.80;;;;;;;3.94;69.68;99259.63;5031762;28;20600;-76
2021/01/13 01:05:34;;;;;;;0.65;0.60;;;;;;;3.94;70.25;99247.06;5031546;28;20461;-77
2021/01/13 01:08:00;;;;;;;1.50;0.80;;;;;;;4.06;69.43;99263.69;5030729;28;20057;-76
2021/01/13 01:10:30;;;;;;;1.00;0.77;;;;;;;3.71;70.95;99230.63;5032785;28;20033;-76
2021/01/13 01:12:57;;;;;;;1.25;0.73;;;;;;;3.85;70.50;99251.38;5032355;28;20035;-76
2021/01/13 01:15:23;;;;;;;0.90;0.70;;;;;;;3.89;70.78;99255.53;5032593;28;20056;-77
2021/01/13 01:17:48;;;;;;;1.05;0.80;;;;;;;4.06;69.56;99259.47;5032360;28;20033;-77
2021/01/13 01:20:14;;;;;;;1.08;0.93;;;;;;;3.99;70.17;99262.94;5032334;28;20030;-77
2021/01/13 01:22:54;;;;;;;2.15;1.00;;;;;;;4.11;69.10;99261.94;5031370;28;20017;-77
2021/01/13 01:25:21;;;;;;;0.98;0.85;;;;;;;4.02;69.33;99242.75;5031272;28;20030;-77
2021/01/13 01:27:51;;;;;;;1.20;0.80;;;;;;;3.99;68.53;99254.53;5031359;28;20029;-77
2021/01/13 01:30:17;;;;;;;1.70;0.88;;;;;;;4.01;69.46;99255.34;5033588;28;20026;-77
2021/01/13 01:32:43;;;;;;;2.50;1.15;;;;;;;3.93;70.46;99247.09;5031216;28;20502;-77
2021/01/13 01:35:09;;;;;;;1.85;1.00;;;;;;;4.15;70.33;99244.28;5031609;28;20037;-76
2021/01/13 01:37:36;;;;;;;2.13;1.10;;;;;;;4.12;69.92;99239.28;5032713;28;20030;-77
2021/01/13 01:40:09;;;;;;;1.33;0.90;;;;;;;4.10;69.50;99256.06;5032775;28;20155;-77
2021/01/13 01:42:54;;;;;;;1.52;0.70;;;;;;;4.07;67.92;99248.56;5032321;28;20550;-77
2021/01/13 01:45:27;;;;;;;1.38;0.70;;;;;;;4.10;69.21;99247.72;5031705;28;20086;-77
2021/01/13 01:48:07;;;;;;;1.55;0.60;;;;;;;4.09;70.02;99239.31;5031592;28;20116;-77
2021/01/13 01:50:38;;;;;;;2.20;0.90;;;;;;;4.03;70.03;99246.13;5032722;28;20052;-76
2021/01/13 01:53:21;;;;;;;0.68;0.50;;;;;;;4.05;69.37;99241.91;5032117;28;20561;-77
2021/01/13 01:55:53;;;;;;;1.08;0.60;;;;;;;4.08;69.20;99231.81;5031447;28;20113;-77
2021/01/13 01:58:30;;;;;;;1.05;0.60;;;;;;;4.09;70.49;99239.31;5030866;28;20124;-76
2021/01/13 02:01:00;;;;;;;1.25;0.50;;;;;;;4.06;68.79;99233.50;5032376;28;20036;-77
2021/01/13 02:03:30;;;;;;;1.10;0.50;;;;;;;4.03;68.26;99221.81;5033022;28;20028;-77
2021/01/13 02:06:02;;;;;;;0.80;0.50;;;;;;;4.07;70.60;99237.69;5032074;28;20034;-77
2021/01/13 02:08:27;;;;;;;1.38;0.90;;;;;;;3.91;70.77;99218.63;5031065;28;20028;-77
2021/01/13 02:10:53;;;;;;;1.50;0.60;;;;;;;4.16;69.19;99238.38;5031927;28;20029;-77
2021/01/13 02:13:20;;;;;;;1.60;1.02;;;;;;;4.05;68.43;99226.81;5030801;28;20465;-77
2021/01/13 02:15:48;;;;;;;0.70;0.35;;;;;;;3.75;68.37;99152.66;5030631;28;20039;-77
2021/01/13 02:18:17;;;;;;;0.93;0.52;;;;;;;4.16;69.22;99227.50;5031932;28;20053;-77
2021/01/13 02:20:52;;;;;;;0.63;0.40;;;;;;;4.08;69.71;99241.88;5032722;28;20025;-77
2021/01/13 02:23:34;;;;;;;0.70;0.55;;;;;;;4.12;69.06;99236.75;5035617;28;20083;-77
2021/01/13 02:26:24;;;;;;;0.65;0.47;;;;;;;4.24;68.11;99243.28;5034669;28;20059;-77
2021/01/13 02:29:06;;;;;;;1.52;0.50;;;;;;;4.15;68.06;99239.25;5036256;28;20038;-77
2021/01/13 02:31:52;;;;;;;1.25;0.80;;;;;;;4.33;66.55;99251.56;5035743;28;20042;-78
2021/01/13 02:34:59;;;;;;;1.00;0.60;;;;;;;4.15;68.89;99240.91;5034688;28;20037;-77
2021/01/13 02:37:42;;;;;;;0.93;0.50;;;;;;;3.98;70.18;99237.81;5027156;28;20041;-77
2021/01/13 02:40:09;;;;;;;1.02;0.68;;;;;;;4.18;70.52;99263.53;5035334;28;20034;-77
2021/01/13 02:42:46;;;;;;;0.65;0.50;;;;;;;4.24;69.05;99265.91;5035151;28;20116;-75
2021/01/13 02:45:16;;;;;;;0.82;0.68;;;;;;;3.88;70.71;99219.50;5035985;28;20025;-76
2021/01/13 02:47:57;;;;;;;1.30;0.60;;;;;;;4.18;69.66;99256.78;5034626;28;20033;-76
2021/01/13 02:50:29;;;;;;;0.77;0.60;;;;;;;4.23;69.18;99246.66;5033347;28;20033;-77
2021/01/13 02:53:09;;;;;;;;;;;;;;;4.42;70.36;99265.66;5035213;28;20044;-77
2021/01/13 02:55:39;;;;;;;1.13;0.68;;;;;;;4.03;69.78;99244.44;5033850;28;19919;-77
2021/01/13 02:58:08;;;;;;;0.90;0.60;;;;;;;3.81;68.43;99239.69;5033430;28;20090;-77
2021/01/13 03:00:36;;;;;;;1.25;0.60;;;;;;;4.12;69.79;99261.09;5034801;28;20029;-77
2021/01/13 03:03:02;;;;;;;0.80;0.60;;;;;;;4.06;70.04;99274.56;5035328;28;20100;-77
2021/01/13 03:05:28;;;;;;;0.77;0.60;;;;;;;4.00;69.11;99241.94;5035042;28;20092;-78
2021/01/13 03:07:58;;;;;;;1.00;0.70;;;;;;;4.20;68.44;99261.78;5035064;28;20033;-78
2021/01/13 03:10:28;;;;;;;1.67;0.77;;;;;;;4.11;69.43;99266.97;5033429;28;20033;-77
2021/01/13 03:12:59;;;;;;;1.80;0.80;;;;;;;4.16;69.41;99257.69;5033284;28;20513;-77
2021/01/13 03:15:27;;;;;;;1.25;0.82;;;;;;;3.97;70.77;99266.31;5038881;28;20033;-77
2021/01/13 03:18:06;;;;;;;1.10;0.70;;;;;;;4.02;71.03;99262.88;5040225;28;20029;-77
2021/01/13 03:21:06;;;;;;;1.23;0.80;;;;;;;3.92;69.98;99265.56;5039700;28;20038;-78
2021/01/13 03:23:41;;;;;;;1.45;0.63;;;;;;;3.94;70.80;99271.38;5043442;28;20035;-78
2021/01/13 03:26:08;;;;;;;2.28;0.82;;;;;;;3.88;71.01;99241.31;5041010;28;20089;-77
2021/01/13 03:28:37;;;;;;;2.22;0.80;;;;;;;3.98;70.84;99256.22;5037461;28;20041;-79
2021/01/13 03:31:07;;;;;;;1.20;0.75;;;;;;;3.96;70.64;99257.94;5032915;28;20033;-76
2021/01/13 03:33:54;;;;;;;1.00;0.65;;;;;;;4.01;70.29;99262.91;5034321;28;20029;-74
2021/01/13 03:36:52;;;;;;;0.88;0.70;;;;;;;3.89;71.64;99256.34;5034457;28;20033;-76
2021/01/13 03:39:21;;;;;;;1.10;0.80;;;;;;;3.94;69.96;99273.91;5034518;28;20037;-76
2021/01/13 03:41:52;;;;;;;1.38;1.00;;;;;;;3.96;70.95;99274.72;5034170;28;20025;-76
2021/01/13 03:44:30;;;;;;;1.83;1.05;;;;;;;3.98;72.03;99273.00;5034396;28;20032;-77
2021/01/13 03:47:13;;;;;;;1.05;0.70;;;;;;;3.94;70.59;99279.75;5034665;28;20056;-77
2021/01/13 03:49:47;;;;;;;1.67;0.80;;;;;;;3.90;70.85;99259.72;5033300;28;20387;-77
2021/01/13 03:52:14;;;;;;;2.40;1.10;;;;;;;3.88;70.74;99271.47;5033251;28;20033;-77
2021/01/13 03:54:43;;;;;;;3.97;2.10;;;;;;;3.90;72.11;99273.09;5033947;28;20495;-78
2021/01/13 03:57:09;;;;;;;2.40;1.40;;;;;;;3.98;72.55;99276.34;5033104;28;20117;-77
2021/01/13 03:59:53;;;;;;;2.33;1.20;;;;;;;3.97;70.07;99286.41;5033503;28;20152;-77
2021/01/13 04:02:27;;;;;;;1.17;0.90;;;;;;;3.92;71.55;99278.94;5033976;28;20104;-76
2021/01/13 04:04:55;;;;;;;1.55;1.10;;;;;;;3.92;71.81;99278.94;5034051;28;20029;-77
2021/01/13 04:07:23;;;;;;;1.52;0.93;;;;;;;3.94;71.80;99283.97;5033613;28;20029;-77
2021/01/13 04:09:48;;;;;;;1.77;1.10;;;;;;;3.85;71.68;99263.94;5033906;28;20053;-77
2021/01/13 04:12:16;;;;;;;1.50;0.90;;;;;;;3.98;70.91;99281.38;5036636;28;20040;-77
2021/01/13 04:14:54;;;;;;;2.65;1.50;;;;;;;3.96;70.78;99283.06;5032944;28;20509;-77
2021/01/13 04:17:20;;;;;;;2.70;1.50;;;;;;;3.86;71.32;99289.09;5033088;28;20405;-77
2021/01/13 04:19:47;;;;;;;1.38;1.00;;;;;;;3.82;71.31;99269.03;5032701;28;20032;-78
2021/01/13 04:22:16;;;;;;;2.03;0.90;;;;;;;3.86;71.43;99284.06;5032798;28;20419;-77
2021/01/13 04:24:43;;;;;;;1.10;0.73;;;;;;;3.98;71.24;99286.38;5033569;28;20026;-77
2021/01/13 04:27:19;;;;;;;2.00;0.93;;;;;;;3.82;71.92;99289.97;5032886;28;20029;-77
2021/01/13 04:29:45;;;;;;;1.88;1.02;;;;;;;3.83;70.70;99284.09;5034136;28;20041;-77
2021/01/13 04:32:12;;;;;;;3.40;1.80;;;;;;;3.81;71.17;99287.47;5033034;28;20029;-78
2021/01/13 04:34:39;;;;;;;4.18;1.75;;;;;;;3.67;71.35;99264.16;5033688;28;20028;-78
2021/01/13 04:37:08;;;;;;;6.40;2.20;;;;;;;3.60;72.25;99250.03;5032563;28;20639;-79
2021/01/13 04:39:36;;;;;;;3.88;2.33;;;;;;;3.56;72.37;99256.78;5032401;28;20033;-80
2021/01/13 04:42:07;;;;;;;4.05;2.65;;;;;;;3.68;72.82;99281.75;5030327;28;20461;-78
2021/01/13 04:45:04;;;;;;;3.58;2.45;;;;;;;3.64;73.28;99275.13;5032463;28;20021;-76
2021/01/13 04:47:46;;;;;;;6.47;4.40;;;;;;;3.53;72.77;99292.81;5032264;28;20037;-77
2021/01/13 04:50:16;;;;;;;7.82;4.60;;;;;;;3.46;73.18;99285.38;5031808;28;20034;-77
2021/01/13 04:52:46;;;;;;;4.75;2.88;;;;;;;3.23;73.87;99252.09;5031831;28;20525;-77
2021/01/13 04:55:27;;;;;;;7.47;3.28;;;;;;;3.41;72.98;99282.06;5031764;28;20052;-77
2021/01/13 04:58:26;;;;;;;8.52;4.53;;;;;;;2.99;75.25;99262.41;5042093;28;20038;-80
2021/01/13 05:01:28;;;;;;;8.88;4.03;;;;;;;3.28;74.47;99303.97;5031859;28;20033;-77
2021/01/13 05:04:27;;;;;;;7.00;3.85;;;;;;;3.30;73.79;99294.75;4991003;28;20045;-77
2021/01/13 05:07:32;;;;;;;4.93;2.90;;;;;;;3.30;73.82;99303.94;4989708;28;20038;-77
2021/01/13 05:10:24;;;;;;;4.80;2.60;;;;;;;3.43;72.80;99298.78;4991013;28;20058;-79
2021/01/13 05:12:59;;;;;;;5.70;2.78;;;;;;;3.28;72.12;99283.88;4989920;28;20112;-76
2021/01/13 05:15:56;;;;;;;5.28;3.25;;;;;;;3.24;73.77;99299.81;4974570;28;20511;-77
2021/01/13 05:18:49;;;;;;;4.78;3.00;;;;;;;3.27;73.96;99304.81;4974924;28;20040;-78
2021/01/13 05:21:26;;;;;;;4.20;2.80;;;;;;;3.23;76.61;99280.56;5022424;28;20037;-77
2021/01/13 05:23:56;;;;;;;6.15;3.28;;;;;;;3.19;73.70;99288.16;5031431;28;20033;-77
2021/01/13 05:26:24;;;;;;;6.68;3.50;;;;;;;2.84;74.72;99253.34;5031665;28;20029;-78
2021/01/13 05:29:24;;;;;;;5.68;3.80;;;;;;;3.25;73.71;99296.44;5031397;28;20095;-78
2021/01/13 05:32:00;;;;;;;6.90;3.70;;;;;;;2.90;73.59;99259.97;5035461;28;20061;-77
2021/01/13 05:34:52;;;;;;;5.15;3.30;;;;;;;3.23;74.13;99305.69;5030663;28;20069;-77
2021/01/13 05:40:52;;;;;;;6.60;3.88;;;;;;;3.19;74.46;99319.09;5032119;28;20047;-76
2021/01/13 05:43:29;;;;;;;6.18;3.88;;;;;;;3.20;74.79;99315.75;5030589;28;20419;-77
2021/01/13 05:46:33;;;;;;;9.55;5.18;;;;;;;3.38;73.33;99323.13;5031569;28;20096;-75
2021/01/13 05:49:13;;;;;;;12.35;6.93;;;;;;;3.29;73.76;99329.88;5031435;28;20083;-75
2021/01/13 05:51:47;;;;;;;9.93;4.97;;;;;;;3.25;74.62;99330.75;5031470;28;20026;-76
2021/01/13 05:55:02;;;;;;;7.38;4.68;;;;;;;3.20;74.74;99330.00;5031672;28;20034;-75
2021/01/13 05:58:16;;;;;;;8.10;5.57;;;;;;;3.26;74.77;99332.44;5031401;28;20033;-75
2021/01/13 06:00:45;;;;;;;10.90;6.13;;;;;;;3.21;74.26;99332.47;5031479;28;20042;-74
2021/01/13 06:03:51;;;;;;;15.18;7.90;;;;;;;3.27;74.17;99336.59;5030480;28;20034;-74
2021/01/13 06:06:34;;;;;;;18.98;10.23;;;;;;;2.96;75.54;99308.44;5030433;28;20026;-76
2021/01/13 06:09:18;;;;;;;20.27;10.95;;;;;;;3.23;74.39;99350.88;5031527;28;20040;-74
2021/01/13 06:15:09;;;;;;;28.83;13.77;;;;;;;2.99;75.63;99320.94;5031581;28;20091;-74
2021/01/13 06:17:35;;;;;;;25.63;14.50;;;;;;;3.26;74.87;99363.41;5031761;28;20021;-75
2021/01/13 06:20:08;;;;;;;28.05;17.88;;;;;;;3.29;75.50;99360.88;5031401;28;20037;-76
2021/01/13 06:22:51;;;;;;;29.60;18.52;;;;;;;3.53;74.78;99371.56;5031176;28;20499;-75
2021/01/13 06:25:28;;;;;;;17.23;10.27;;;;;;;5.03;68.14;99361.22;5030177;28;20121;-74
2021/01/13 06:28:38;;;;;;;15.38;8.70;;;;;;;5.57;65.53;99360.28;5030091;28;20033;-74
2021/01/13 06:31:42;;;;;;;19.67;10.82;;;;;;;5.07;66.28;99368.69;5031056;28;20063;-74
2021/01/13 06:34:23;;;;;;;31.83;15.60;;;;;;;5.34;65.78;99372.44;4999382;28;20103;-74
2021/01/13 06:37:06;;;;;;;71.50;32.42;;;;;;;6.90;61.13;99365.09;5029964;28;20414;-74
2021/01/13 06:39:33;;;;;;;72.25;31.30;;;;;;;6.25;62.87;99364.03;5030036;28;20033;-74
2021/01/13 06:42:02;;;;;;;38.50;19.95;;;;;;;7.13;60.21;99344.34;5031228;28;20022;-74
2021/01/13 06:44:48;;;;;;;64.30;25.52;;;;;;;6.76;61.84;99367.94;5031301;28;20025;-74
2021/01/13 06:47:25;;;;;;;26.95;13.88;;;;;;;7.37;59.53;99364.78;5031976;28;20503;-74
2021/01/13 06:50:28;;;;;;;75.25;32.97;;;;;;;7.38;58.82;99373.22;5032874;28;20025;-76
2021/01/13 06:53:22;;;;;;;34.85;17.23;;;;;;;7.70;57.65;99375.75;5034155;28;20103;-76
2021/01/13 06:56:17;;;;;;;11.27;6.82;;;;;;;5.63;64.17;99384.53;5032516;28;20044;-76
2021/01/13 07:02:12;;;;;;;10.38;6.93;;;;;;;5.14;66.19;99387.91;4992452;28;20045;-75
2021/01/13 07:04:48;;;;;;;15.73;9.93;;;;;;;5.23;67.05;99389.41;4992162;28;20041;-77
2021/01/13 07:07:26;;;;;;;18.35;12.02;;;;;;;5.12;69.04;99391.28;4993526;28;20033;-76
2021/01/13 07:09:53;;;;;;;7.88;5.22;;;;;;;4.90;67.60;99375.69;4994147;28;20031;-76
2021/01/13 07:12:37;;;;;;;9.73;7.25;;;;;;;4.83;67.42;99385.88;4995488;28;20030;-76
2021/01/13 07:19:15;;;;;;;13.63;8.50;;;;;;;5.07;68.04;99391.34;4995424;28;20545;-76
2021/01/13 07:22:04;;;;;;;14.95;8.45;;;;;;;5.16;69.02;99392.91;4993818;28;20030;-75
2021/01/13 07:27:52;;;;;;;6.68;4.55;;;;;;;5.11;67.90;99382.09;4995287;28;20109;-76
2021/01/13 07:30:23;;;;;;;5.57;3.75;;;;;;;4.93;66.76;99352.94;4993829;28;20079;-75
2021/01/13 07:32:58;;;;;;;9.55;6.35;;;;;;;5.25;67.39;99390.22;4994839;28;20037;-76
2021/01/13 07:35:35;;;;;;;9.43;6.85;;;;;;;5.23;67.28;99367.59;4993818;28;20030;-75
2021/01/13 07:38:28;;;;;;;5.57;3.55;;;;;;;5.35;66.33;99390.94;4994683;28;20030;-76
2021/01/13 07:44:39;;;;;;;12.57;7.65;;;;;;;5.29;67.00;99382.59;4994741;28;20044;-76
2021/01/13 07:47:58;;;;;;;5.70;3.75;;;;;;;5.42;64.79;99383.22;4996792;28;20514;-76
2021/01/13 07:57:07;;;;;;;11.43;7.23;;;;;;;5.37;66.57;99358.97;4994566;28;20125;-75
2021/01/13 07:59:44;;;;;;;6.32;4.30;;;;;;;5.71;66.15;99402.88;4993872;28;20030;-76
2021/01/13 08:06:16;;;;;;;16.60;11.47;;;;;;;5.76;66.36;99403.66;5033767;28;20478;-75
2021/01/13 08:08:59;;;;;;;12.05;7.68;;;;;;;5.66;66.30;99402.97;5017699;28;20029;-76
2021/01/13 08:12:17;;;;;;;10.15;6.95;;;;;;;5.51;66.92;99398.19;5033298;28;20073;-75
2021/01/13 08:18:53;;;;;;;16.83;9.85;;;;;;;5.42;68.90;99400.03;5033312;28;20111;-75
2021/01/13 08:24:33;;;;;;;12.93;7.88;;;;;;;5.46;68.52;99409.22;5033047;28;20025;-75
2021/01/13 08:27:06;;;;;;;9.63;6.47;;;;;;;5.30;68.21;99388.47;5031712;28;20057;-74
2021/01/13 08:29:37;;;;;;;6.57;4.65;;;;;;;5.43;67.63;99412.59;5031558;28;20061;-75
2021/01/13 08:32:08;;;;;;;7.95;5.40;;;;;;;5.26;68.40;99377.63;5031424;28;20022;-75
2021/01/13 08:35:26;;;;;;;9.48;5.60;;;;;;;5.39;68.13;99413.50;5031792;28;20041;-74
2021/01/13 08:41:23;;;;;;;9.90;5.78;;;;;;;5.60;69.27;99414.84;5033017;28;20605;-74
2021/01/13 08:44:34;;;;;;;13.45;8.98;;;;;;;5.73;71.49;99422.16;5032743;28;20478;-74
2021/01/13 08:47:03;;;;;;;7.10;5.15;;;;;;;5.26;69.53;99382.66;5013838;28;20041;-75
2021/01/13 08:49:39;;;;;;;6.30;4.25;;;;;;;5.52;69.34;99429.28;5032770;28;20025;-74
2021/01/13 08:55:26;;;;;;;9.87;6.57;;;;;;;5.60;68.70;99412.34;5032970;28;20056;-74
2021/01/13 08:58:04;;;;;;;9.13;5.82;;;;;;;5.64;67.25;99424.88;5031082;28;20478;-74
2021/01/13 09:00:31;;;;;;;14.25;8.13;;;;;;;5.58;67.78;99404.81;5024147;28;20057;-75
2021/01/13 09:03:47;;;;;;;10.02;6.82;;;;;;;5.75;68.97;99429.69;5032747;28;20041;-76
2021/01/13 09:09:40;;;;;;;5.50;3.28;;;;;;;5.78;66.44;99417.06;5032639;28;20048;-75
2021/01/13 09:12:50;;;;;;;9.05;5.40;;;;;;;5.85;67.90;99419.47;5032471;28;20064;-75
2021/01/13 09:15:18;;;;;;;11.20;7.47;;;;;;;5.96;67.60;99406.66;5032333;28;20079;-76
2021/01/13 09:17:59;;;;;;;9.45;6.20;;;;;;;6.02;67.55;99419.16;5034073;28;20025;-75
2021/01/13 09:20:49;;;;;;;27.20;20.50;;;;;;;6.04;67.82;99389.69;5030711;28;20499;-74
2021/01/13 09:23:44;;;;;;;12.30;8.30;;;;;;;6.13;65.29;99414.75;5031822;28;20408;-75
2021/01/13 09:26:49;;;;;;;14.23;9.48;;;;;;;6.44;64.79;99403.16;5032032;28;20130;-76
2021/01/13 09:29:53;;;;;;;18.02;11.85;;;;;;;6.98;64.29;99399.44;5030311;28;20044;-76
2021/01/13 09:32:29;;;;;;;7.60;5.47;;;;;;;6.93;63.49;99380.22;5033152;28;20048;-76
2021/01/13 09:38:28;;;;;;;8.37;5.87;;;;;;;6.68;65.22;99384.13;5031932;28;20091;-75
2021/01/13 09:41:01;;;;;;;13.75;9.88;;;;;;;6.80;64.24;99386.38;5030768;28;20484;-76
2021/01/13 09:46:48;;;;;;;7.97;5.55;;;;;;;6.63;65.32;99404.44;5032232;28;20136;-76
2021/01/13 09:49:22;;;;;;;6.93;3.97;;;;;;;6.68;64.95;99400.13;5030587;28;20017;-76
2021/01/13 09:52:23;;;;;;;9.13;7.20;;;;;;;6.81;64.81;99395.63;5031486;28;20055;-75
2021/01/13 09:55:39;;;;;;;8.40;5.68;;;;;;;6.90;66.98;99395.41;5031731;28;20091;-75
2021/01/13 09:58:17;;;;;;;10.00;6.60;;;;;;;6.78;64.70;99388.13;5031699;28;20041;-76
2021/01/13 10:00:43;;;;;;;12.38;7.35;;;;;;;6.61;65.36;99320.34;5027691;28;20037;-75
2021/01/13 10:03:44;;;;;;;15.25;9.13;;;;;;;6.74;65.71;99382.31;5030482;28;20129;-76
2021/01/13 10:09:31;;;;;;;11.63;5.25;;;;;;;6.87;64.97;99366.00;5031841;28;20044;-77
2021/01/13 10:12:03;;;;;;;16.30;8.20;;;;;;;6.90;64.86;99371.00;5031591;28;20022;-77
2021/01/13 10:14:52;;;;;;;14.23;8.70;;;;;;;7.09;65.95;99380.69;5031733;28;20037;-77
2021/01/13 10:17:35;;;;;;;6.10;4.30;;;;;;;6.83;64.18;99356.81;5031655;28;20041;-75
2021/01/13 10:20:40;;;;;;;10.02;6.45;;;;;;;7.16;63.66;99382.19;5030428;28;20041;-78
2021/01/13 10:23:26;;;;;;;12.65;8.75;;;;;;;7.19;63.96;99367.75;5029043;28;20104;-79
2021/01/13 10:26:03;;;;;;;9.98;7.50;;;;;;;7.01;64.71;99358.13;5051445;28;20100;-76
2021/01/13 10:28:28;;;;;;;10.27;6.82;;;;;;;6.84;65.33;99360.19;5049673;28;20053;-77
2021/01/13 10:35:11;;;;;;;5.77;3.83;;;;;;;6.61;64.86;99364.94;5051375;28;20175;-78
2021/01/13 10:37:55;;;;;;;7.78;4.93;;;;;;;6.65;63.90;99359.81;5049009;28;20439;-77
2021/01/13 10:40:39;;;;;;;6.72;5.15;;;;;;;6.52;64.46;99343.25;5051295;28;20029;-77
2021/01/13 10:43:22;;;;;;;10.00;5.35;;;;;;;6.73;64.86;99357.94;5055013;28;20021;-75
2021/01/13 10:46:02;;;;;;;6.70;5.00;;;;;;;6.78;64.98;99353.59;5053844;28;20037;-75
2021/01/13 10:48:52;;;;;;;6.55;4.90;;;;;;;7.12;64.70;99357.84;5055536;28;20482;-74
2021/01/13 10:51:45;;;;;;;6.95;5.22;;;;;;;7.18;65.05;99350.97;5053840;28;20028;-75
2021/01/13 10:54:16;;;;;;;5.63;4.60;;;;;;;6.99;62.45;99334.59;5055598;28;20025;-74
2021/01/13 10:57:08;;;;;;;4.35;3.65;;;;;;;7.40;61.68;99343.66;5054748;28;20051;-74
2021/01/13 10:59:35;;;;;;;8.05;5.38;;;;;;;7.16;62.68;99307.19;5055286;28;20032;-76
2021/01/13 11:02:08;;;;;;;6.90;4.85;;;;;;;7.16;62.79;99329.94;5052923;28;20045;-77
2021/01/13 11:05:00;;;;;;;6.68;4.57;;;;;;;7.34;61.96;99331.19;5053771;28;20041;-76
2021/01/13 11:07:42;;;;;;;7.10;4.55;;;;;;;7.44;63.41;99337.66;5053640;28;20055;-76
2021/01/13 11:10:11;;;;;;;9.25;6.13;;;;;;;7.65;62.17;99309.25;5054444;28;20032;-75
2021/01/13 11:13:12;;;;;;;7.35;5.43;;;;;;;7.95;62.11;99316.03;5053343;28;20057;-76
2021/01/13 11:16:19;;;;;;;5.80;3.97;;;;;;;7.94;60.34;99318.59;5054404;28;20039;-76
2021/01/13 11:18:48;;;;;;;8.80;5.47;;;;;;;8.06;60.32;99314.00;5053106;28;20033;-75
2021/01/13 11:21:15;;;;;;;9.52;6.75;;;;;;;7.64;61.91;99328.69;5053325;28;20040;-76
2021/01/13 11:23:51;;;;;;;7.13;4.65;;;;;;;7.65;61.90;99326.97;5054378;28;20028;-76
2021/01/13 11:26:38;;;;;;;8.50;5.60;;;;;;;7.26;62.19;99275.78;5053102;28;20490;-76
2021/01/13 11:29:08;;;;;;;6.75;4.68;;;;;;;7.66;61.09;99331.19;5053313;28;20029;-77
2021/01/13 11:31:59;;;;;;;9.40;5.57;;;;;;;7.51;62.12;99329.03;5054613;28;20025;-77
2021/01/13 11:34:59;;;;;;;8.13;5.50;;;;;;;7.64;62.96;99332.91;5054403;28;20037;-76
2021/01/13 11:41:13;;;;;;;5.67;4.17;;;;;;;7.54;62.59;99321.38;5054386;28;20028;-74
2021/01/13 11:44:08;;;;;;;9.05;6.50;;;;;;;7.31;61.92;99308.53;5053864;28;20029;-73
2021/01/13 11:50:01;;;;;;;5.30;4.00;;;;;;;6.51;62.75;99222.09;5054101;28;20033;-76
2021/01/13 11:55:50;;;;;;;8.77;6.45;;;;;;;6.92;62.44;99315.38;5053797;28;20047;-75
2021/01/13 11:58:35;;;;;;;8.32;6.13;;;;;;;6.88;64.22;99323.91;5052188;28;20044;-75
2021/01/13 12:01:01;;;;;;;11.35;8.30;;;;;;;6.79;63.36;99303.91;5053079;28;20033;-75
2021/01/13 12:03:28;;;;;;;25.55;15.68;;;;;;;6.80;63.38;99313.97;5052497;28;20048;-76
2021/01/13 12:06:22;;;;;;;13.20;9.60;;;;;;;6.81;64.06;99335.81;5052366;28;20186;-75
2021/01/13 12:09:42;;;;;;;19.48;10.07;;;;;;;6.63;63.62;99331.22;5051323;28;20052;-75
2021/01/13 12:13:00;;;;;;;6.75;4.40;;;;;;;6.66;62.73;99331.13;5053700;28;20028;-75
2021/01/13 12:16:05;;;;;;;7.13;4.85;;;;;;;6.63;64.24;99341.31;5055756;28;20025;-76
2021/01/13 12:18:54;;;;;;;9.85;6.13;;;;;;;6.71;64.86;99334.41;5053995;28;20029;-76
2021/01/13 12:24:42;;;;;;;10.03;6.47;;;;;;;6.43;64.32;99333.34;5053250;28;20097;-76
2021/01/13 12:27:28;;;;;;;8.80;6.10;;;;;;;6.51;64.80;99356.75;5052013;28;20805;-75
2021/01/13 12:33:27;;;;;;;8.70;6.05;;;;;;;6.42;65.03;99346.81;5053119;28;20568;-74
2021/01/13 12:36:37;;;;;;;15.05;10.15;;;;;;;6.50;64.28;99362.63;5052819;28;20021;-75
2021/01/13 12:39:07;;;;;;;17.10;10.93;;;;;;;6.45;65.45;99356.03;5051820;28;20033;-74
2021/01/13 12:42:26;;;;;;;12.40;8.35;;;;;;;6.61;66.16;99359.91;5052958;28;20059;-77
2021/01/13 12:45:20;;;;;;;17.15;10.15;;;;;;;6.46;64.07;99367.78;5053018;28;20152;-75
2021/01/13 12:47:56;;;;;;;15.85;10.25;;;;;;;6.28;65.33;99333.66;5051670;28;20036;-74
2021/01/13 12:50:21;;;;;;;10.30;6.63;;;;;;;6.55;64.66;99354.97;5052647;28;20029;-75
2021/01/13 12:53:12;;;;;;;10.23;7.15;;;;;;;6.65;64.55;99348.84;5051843;28;20406;-78
2021/01/13 12:56:04;;;;;;;8.10;5.55;;;;;;;6.56;64.87;99339.78;5051670;28;20032;-75
2021/01/13 12:58:59;;;;;;;12.75;8.23;;;;;;;6.59;63.00;99346.47;5052803;28;20067;-75
2021/01/13 13:01:26;;;;;;;10.50;7.30;;;;;;;6.49;63.89;99333.22;5051539;28;20056;-76
2021/01/13 13:04:05;;;;;;;7.97;4.95;;;;;;;6.61;63.21;99352.31;5051672;28;20402;-74
2021/01/13 13:06:59;;;;;;;13.55;9.00;;;;;;;6.60;63.94;99356.53;5051302;28;20071;-75
2021/01/13 13:09:52;;;;;;;10.23;6.80;;;;;;;6.57;63.84;99355.78;5051340;28;20033;-75
2021/01/13 13:13:01;;;;;;;14.88;9.77;;;;;;;6.54;63.95;99356.66;5051223;28;20029;-77
2021/01/13 13:16:02;;;;;;;15.85;11.30;;;;;;;6.51;64.05;99354.22;5052335;28;20040;-77
2021/01/13 13:19:00;;;;;;;19.70;14.45;;;;;;;6.55;65.55;99355.81;5052446;28;20548;-78
2021/01/13 13:21:28;;;;;;;11.10;7.40;;;;;;;6.31;64.34;99327.72;5051424;28;20035;-76
2021/01/13 13:24:00;;;;;;;13.02;7.45;;;;;;;6.44;65.17;99362.78;5051121;28;20037;-76
2021/01/13 13:27:11;;;;;;;11.15;6.38;;;;;;;6.48;64.00;99363.53;5050591;28;20028;-76
2021/01/13 13:29:38;;;;;;;16.55;9.75;;;;;;;6.26;64.19;99320.25;5050933;28;20179;-75
2021/01/13 13:32:20;;;;;;;15.63;10.05;;;;;;;6.36;63.62;99344.44;5052088;28;20030;-76
2021/01/13 13:35:01;;;;;;;14.15;8.55;;;;;;;6.45;63.64;99366.13;5051057;28;20032;-77
2021/01/13 13:37:39;;;;;;;10.10;5.68;;;;;;;6.27;64.37;99346.31;5055651;28;20486;-77
2021/01/13 13:40:08;;;;;;;17.83;11.73;;;;;;;6.26;63.88;99350.53;5050390;28;20172;-76
2021/01/13 13:42:40;;;;;;;14.70;8.02;;;;;;;6.25;64.50;99351.41;5050649;28;20031;-75
2021/01/13 13:45:09;;;;;;;12.32;7.90;;;;;;;6.24;63.35;99356.50;5051701;28;20055;-75
2021/01/13 13:48:04;;;;;;;9.20;5.70;;;;;;;6.33;62.79;99384.06;5051556;28;20087;-75
2021/01/13 13:50:43;;;;;;;18.70;10.68;;;;;;;6.24;63.25;99372.44;5050524;28;20032;-76
2021/01/13 13:53:11;;;;;;;14.00;8.02;;;;;;;6.28;62.63;99374.03;5051441;28;20020;-76
2021/01/13 13:58:57;;;;;;;9.23;6.00;;;;;;;6.07;63.10;99359.34;5052013;28;20417;-76